sensor_id;sensor_type;location;lat;lon;timestamp;P1;durP1;ratioP1;P2;durP2;ratioP2
4504;SDS011;2265;48.794;9.520;2023-02-15T00:01:08;12.40;;;5.10;;
4504;SDS011;2265;48.794;9.520;2023-02-15T00:03:37;6.43;;;3.63;;
4504;SDS011;2265;48.794;9.520;2023-02-15T00:06:04;6.50;;;4.10;;
4504;SDS011;2265;48.794;9.520;2023-02-15T00:08:32;9.83;;;3.73;;
4504;SDS011;2265;48.794;9.520;2023-02-15T00:11:05;6.70;;;3.27;;
4504;SDS011;2265;48.794;9.520;2023-02-15T00:13:33;6.10;;;3.20;;
4504;SDS011;2265;48.794;9.520;2023-02-15T00:16:04;8.00;;;3.23;;
4504;SDS011;2265;48.794;9.520;2023-02-15T00:18:34;6.20;;;3.37;;
4504;SDS011;2265;48.794;9.520;2023-02-15T00:21:03;8.57;;;4.50;;
4504;SDS011;2265;48.794;9.520;2023-02-15T00:23:31;8.60;;;4.50;;
4504;SDS011;2265;48.794;9.520;2023-02-15T00:26:05;6.67;;;4.20;;
4504;SDS011;2265;48.794;9.520;2023-02-15T00:28:33;10.07;;;5.17;;
4504;SDS011;2265;48.794;9.520;2023-02-15T00:31:04;7.73;;;4.10;;
4504;SDS011;2265;48.794;9.520;2023-02-15T00:33:31;5.90;;;3.60;;
4504;SDS011;2265;48.794;9.520;2023-02-15T00:36:00;6.13;;;4.27;;
4504;SDS011;2265;48.794;9.520;2023-02-15T00:38:28;6.40;;;3.80;;
4504;SDS011;2265;48.794;9.520;2023-02-15T00:40:57;8.43;;;4.70;;
4504;SDS011;2265;48.794;9.520;2023-02-15T00:43:26;11.83;;;4.63;;
4504;SDS011;2265;48.794;9.520;2023-02-15T00:45:54;4.17;;;2.80;;
4504;SDS011;2265;48.794;9.520;2023-02-15T00:48:21;7.80;;;4.13;;
4504;SDS011;2265;48.794;9.520;2023-02-15T00:50:51;6.63;;;3.37;;
4504;SDS011;2265;48.794;9.520;2023-02-15T00:53:19;5.87;;;3.77;;
4504;SDS011;2265;48.794;9.520;2023-02-15T00:55:46;13.23;;;5.03;;
4504;SDS011;2265;48.794;9.520;2023-02-15T00:58:13;5.87;;;3.13;;
4504;SDS011;2265;48.794;9.520;2023-02-15T01:00:42;6.33;;;4.53;;
4504;SDS011;2265;48.794;9.520;2023-02-15T01:03:10;5.93;;;3.30;;
4504;SDS011;2265;48.794;9.520;2023-02-15T01:05:41;13.63;;;4.13;;
4504;SDS011;2265;48.794;9.520;2023-02-15T01:08:10;8.90;;;4.03;;
4504;SDS011;2265;48.794;9.520;2023-02-15T01:10:37;4.80;;;3.20;;
4504;SDS011;2265;48.794;9.520;2023-02-15T01:13:05;9.90;;;4.73;;
4504;SDS011;2265;48.794;9.520;2023-02-15T01:15:33;9.60;;;4.10;;
4504;SDS011;2265;48.794;9.520;2023-02-15T01:18:00;5.67;;;3.80;;
4504;SDS011;2265;48.794;9.520;2023-02-15T01:20:28;6.27;;;3.90;;
4504;SDS011;2265;48.794;9.520;2023-02-15T01:22:56;6.40;;;4.13;;
4504;SDS011;2265;48.794;9.520;2023-02-15T01:25:25;7.40;;;4.33;;
4504;SDS011;2265;48.794;9.520;2023-02-15T01:27:53;9.60;;;4.97;;
4504;SDS011;2265;48.794;9.520;2023-02-15T01:30:20;9.27;;;4.17;;
4504;SDS011;2265;48.794;9.520;2023-02-15T01:32:47;11.37;;;4.40;;
4504;SDS011;2265;48.794;9.520;2023-02-15T01:35:14;6.80;;;4.27;;
4504;SDS011;2265;48.794;9.520;2023-02-15T01:37:42;6.67;;;3.47;;
4504;SDS011;2265;48.794;9.520;2023-02-15T01:40:12;6.37;;;3.30;;
4504;SDS011;2265;48.794;9.520;2023-02-15T01:42:42;7.43;;;3.53;;
4504;SDS011;2265;48.794;9.520;2023-02-15T01:45:16;4.13;;;2.90;;
4504;SDS011;2265;48.794;9.520;2023-02-15T01:47:49;4.83;;;2.97;;
4504;SDS011;2265;48.794;9.520;2023-02-15T01:50:20;4.57;;;3.13;;
4504;SDS011;2265;48.794;9.520;2023-02-15T01:52:51;5.27;;;3.10;;
4504;SDS011;2265;48.794;9.520;2023-02-15T01:55:21;4.33;;;2.90;;
4504;SDS011;2265;48.794;9.520;2023-02-15T01:57:52;7.20;;;3.70;;
4504;SDS011;2265;48.794;9.520;2023-02-15T02:00:19;3.97;;;3.17;;
4504;SDS011;2265;48.794;9.520;2023-02-15T02:02:48;15.90;;;3.43;;
4504;SDS011;2265;48.794;9.520;2023-02-15T02:05:19;4.67;;;3.20;;
4504;SDS011;2265;48.794;9.520;2023-02-15T02:07:51;5.70;;;4.07;;
4504;SDS011;2265;48.794;9.520;2023-02-15T02:10:22;9.67;;;4.07;;
4504;SDS011;2265;48.794;9.520;2023-02-15T02:12:50;6.83;;;4.03;;
4504;SDS011;2265;48.794;9.520;2023-02-15T02:15:21;8.33;;;3.37;;
4504;SDS011;2265;48.794;9.520;2023-02-15T02:18:00;7.93;;;3.17;;
4504;SDS011;2265;48.794;9.520;2023-02-15T02:20:44;7.80;;;4.20;;
4504;SDS011;2265;48.794;9.520;2023-02-15T02:23:30;6.03;;;3.27;;
4504;SDS011;2265;48.794;9.520;2023-02-15T02:29:21;7.87;;;2.97;;
4504;SDS011;2265;48.794;9.520;2023-02-15T02:32:16;4.50;;;2.80;;
4504;SDS011;2265;48.794;9.520;2023-02-15T02:35:07;2.40;;;2.00;;
4504;SDS011;2265;48.794;9.520;2023-02-15T02:37:43;6.17;;;3.90;;
4504;SDS011;2265;48.794;9.520;2023-02-15T02:40:19;4.07;;;3.17;;
4504;SDS011;2265;48.794;9.520;2023-02-15T02:42:54;3.37;;;2.70;;
4504;SDS011;2265;48.794;9.520;2023-02-15T02:45:28;4.73;;;2.20;;
4504;SDS011;2265;48.794;9.520;2023-02-15T02:48:02;5.90;;;3.10;;
4504;SDS011;2265;48.794;9.520;2023-02-15T02:50:34;5.13;;;2.60;;
4504;SDS011;2265;48.794;9.520;2023-02-15T02:53:03;5.57;;;2.87;;
4504;SDS011;2265;48.794;9.520;2023-02-15T02:55:31;4.03;;;2.33;;
4504;SDS011;2265;48.794;9.520;2023-02-15T02:58:03;8.10;;;3.33;;
4504;SDS011;2265;48.794;9.520;2023-02-15T03:00:32;6.13;;;3.30;;
4504;SDS011;2265;48.794;9.520;2023-02-15T03:03:07;3.47;;;2.70;;
4504;SDS011;2265;48.794;9.520;2023-02-15T03:05:41;7.87;;;4.10;;
4504;SDS011;2265;48.794;9.520;2023-02-15T03:08:13;4.87;;;2.93;;
4504;SDS011;2265;48.794;9.520;2023-02-15T03:10:47;5.03;;;2.63;;
4504;SDS011;2265;48.794;9.520;2023-02-15T03:13:17;8.57;;;2.47;;
4504;SDS011;2265;48.794;9.520;2023-02-15T03:15:45;4.97;;;2.83;;
4504;SDS011;2265;48.794;9.520;2023-02-15T03:18:33;7.00;;;3.57;;
4504;SDS011;2265;48.794;9.520;2023-02-15T03:21:04;8.70;;;3.63;;
4504;SDS011;2265;48.794;9.520;2023-02-15T03:23:33;5.10;;;2.33;;
4504;SDS011;2265;48.794;9.520;2023-02-15T03:26:04;4.53;;;2.80;;
4504;SDS011;2265;48.794;9.520;2023-02-15T03:28:35;9.50;;;4.47;;
4504;SDS011;2265;48.794;9.520;2023-02-15T03:31:08;5.77;;;3.73;;
4504;SDS011;2265;48.794;9.520;2023-02-15T03:33:37;4.67;;;2.50;;
4504;SDS011;2265;48.794;9.520;2023-02-15T03:36:14;3.80;;;2.90;;
4504;SDS011;2265;48.794;9.520;2023-02-15T03:38:49;5.10;;;2.90;;
4504;SDS011;2265;48.794;9.520;2023-02-15T03:41:24;5.83;;;2.47;;
4504;SDS011;2265;48.794;9.520;2023-02-15T03:43:56;4.80;;;3.40;;
4504;SDS011;2265;48.794;9.520;2023-02-15T03:46:28;2.53;;;2.03;;
4504;SDS011;2265;48.794;9.520;2023-02-15T03:49:01;8.73;;;3.90;;
4504;SDS011;2265;48.794;9.520;2023-02-15T03:51:33;4.20;;;3.13;;
4504;SDS011;2265;48.794;9.520;2023-02-15T03:54:06;5.17;;;3.13;;
4504;SDS011;2265;48.794;9.520;2023-02-15T03:56:35;13.10;;;2.93;;
4504;SDS011;2265;48.794;9.520;2023-02-15T03:59:04;7.30;;;4.00;;
4504;SDS011;2265;48.794;9.520;2023-02-15T04:01:51;10.60;;;2.80;;
4504;SDS011;2265;48.794;9.520;2023-02-15T04:04:31;6.57;;;3.80;;
4504;SDS011;2265;48.794;9.520;2023-02-15T04:07:02;3.53;;;2.20;;
4504;SDS011;2265;48.794;9.520;2023-02-15T04:09:31;3.83;;;2.57;;
4504;SDS011;2265;48.794;9.520;2023-02-15T04:12:15;6.37;;;2.90;;
4504;SDS011;2265;48.794;9.520;2023-02-15T04:14:43;8.70;;;5.10;;
4504;SDS011;2265;48.794;9.520;2023-02-15T04:17:27;2.50;;;2.30;;
4504;SDS011;2265;48.794;9.520;2023-02-15T04:19:54;3.43;;;2.40;;
4504;SDS011;2265;48.794;9.520;2023-02-15T04:22:40;3.47;;;2.23;;
4504;SDS011;2265;48.794;9.520;2023-02-15T04:25:24;6.37;;;4.17;;
4504;SDS011;2265;48.794;9.520;2023-02-15T04:27:52;4.10;;;2.33;;
4504;SDS011;2265;48.794;9.520;2023-02-15T04:30:21;5.00;;;2.70;;
4504;SDS011;2265;48.794;9.520;2023-02-15T04:32:50;7.83;;;3.40;;
4504;SDS011;2265;48.794;9.520;2023-02-15T04:35:17;5.20;;;2.60;;
4504;SDS011;2265;48.794;9.520;2023-02-15T04:37:49;3.20;;;1.93;;
4504;SDS011;2265;48.794;9.520;2023-02-15T04:40:17;4.10;;;2.80;;
4504;SDS011;2265;48.794;9.520;2023-02-15T04:42:45;4.60;;;2.83;;
4504;SDS011;2265;48.794;9.520;2023-02-15T04:45:14;5.83;;;3.30;;
4504;SDS011;2265;48.794;9.520;2023-02-15T04:47:41;3.57;;;2.40;;
4504;SDS011;2265;48.794;9.520;2023-02-15T04:50:08;4.23;;;2.40;;
4504;SDS011;2265;48.794;9.520;2023-02-15T04:52:36;3.87;;;2.30;;
4504;SDS011;2265;48.794;9.520;2023-02-15T04:55:05;4.07;;;2.60;;
4504;SDS011;2265;48.794;9.520;2023-02-15T04:57:34;5.80;;;3.20;;
4504;SDS011;2265;48.794;9.520;2023-02-15T05:00:01;3.77;;;2.83;;
4504;SDS011;2265;48.794;9.520;2023-02-15T05:02:28;4.33;;;2.70;;
4504;SDS011;2265;48.794;9.520;2023-02-15T05:04:55;6.77;;;2.90;;
4504;SDS011;2265;48.794;9.520;2023-02-15T05:07:23;4.50;;;3.10;;
4504;SDS011;2265;48.794;9.520;2023-02-15T05:09:51;3.03;;;2.30;;
4504;SDS011;2265;48.794;9.520;2023-02-15T05:12:19;5.37;;;2.30;;
4504;SDS011;2265;48.794;9.520;2023-02-15T05:14:46;4.87;;;2.47;;
4504;SDS011;2265;48.794;9.520;2023-02-15T05:17:13;9.67;;;3.43;;
4504;SDS011;2265;48.794;9.520;2023-02-15T05:19:42;5.93;;;3.83;;
4504;SDS011;2265;48.794;9.520;2023-02-15T05:22:09;3.93;;;3.17;;
4504;SDS011;2265;48.794;9.520;2023-02-15T05:24:36;4.87;;;2.83;;
4504;SDS011;2265;48.794;9.520;2023-02-15T05:27:23;2.83;;;2.37;;
4504;SDS011;2265;48.794;9.520;2023-02-15T05:30:07;5.73;;;3.27;;
4504;SDS011;2265;48.794;9.520;2023-02-15T05:32:36;5.80;;;2.97;;
4504;SDS011;2265;48.794;9.520;2023-02-15T05:35:04;5.20;;;2.87;;
4504;SDS011;2265;48.794;9.520;2023-02-15T05:37:31;5.07;;;2.70;;
4504;SDS011;2265;48.794;9.520;2023-02-15T05:39:58;6.60;;;3.07;;
4504;SDS011;2265;48.794;9.520;2023-02-15T05:42:27;6.27;;;2.83;;
4504;SDS011;2265;48.794;9.520;2023-02-15T05:44:54;6.53;;;2.97;;
4504;SDS011;2265;48.794;9.520;2023-02-15T05:47:23;2.80;;;2.50;;
4504;SDS011;2265;48.794;9.520;2023-02-15T05:49:50;4.97;;;3.20;;
4504;SDS011;2265;48.794;9.520;2023-02-15T05:52:17;6.00;;;3.07;;
4504;SDS011;2265;48.794;9.520;2023-02-15T05:54:44;6.20;;;2.67;;
4504;SDS011;2265;48.794;9.520;2023-02-15T05:57:11;4.77;;;3.10;;
4504;SDS011;2265;48.794;9.520;2023-02-15T05:59:40;2.50;;;2.30;;
4504;SDS011;2265;48.794;9.520;2023-02-15T06:02:07;6.27;;;3.00;;
4504;SDS011;2265;48.794;9.520;2023-02-15T06:04:36;9.77;;;3.33;;
4504;SDS011;2265;48.794;9.520;2023-02-15T06:07:03;4.70;;;3.50;;
4504;SDS011;2265;48.794;9.520;2023-02-15T06:09:31;2.83;;;2.20;;
4504;SDS011;2265;48.794;9.520;2023-02-15T06:11:58;5.30;;;3.67;;
4504;SDS011;2265;48.794;9.520;2023-02-15T06:14:26;3.97;;;2.43;;
4504;SDS011;2265;48.794;9.520;2023-02-15T06:16:55;4.43;;;3.27;;
4504;SDS011;2265;48.794;9.520;2023-02-15T06:19:22;5.00;;;2.80;;
4504;SDS011;2265;48.794;9.520;2023-02-15T06:21:49;3.40;;;2.80;;
4504;SDS011;2265;48.794;9.520;2023-02-15T06:24:17;5.03;;;3.20;;
4504;SDS011;2265;48.794;9.520;2023-02-15T06:26:44;9.57;;;3.00;;
4504;SDS011;2265;48.794;9.520;2023-02-15T06:29:11;8.80;;;4.33;;
4504;SDS011;2265;48.794;9.520;2023-02-15T06:31:38;6.23;;;3.67;;
4504;SDS011;2265;48.794;9.520;2023-02-15T06:34:06;4.70;;;2.97;;
4504;SDS011;2265;48.794;9.520;2023-02-15T06:36:34;8.23;;;3.53;;
4504;SDS011;2265;48.794;9.520;2023-02-15T06:39:08;10.90;;;3.30;;
4504;SDS011;2265;48.794;9.520;2023-02-15T06:41:35;5.57;;;3.43;;
4504;SDS011;2265;48.794;9.520;2023-02-15T06:44:03;6.60;;;3.53;;
4504;SDS011;2265;48.794;9.520;2023-02-15T06:46:31;8.33;;;2.80;;
4504;SDS011;2265;48.794;9.520;2023-02-15T06:48:58;6.60;;;3.53;;
4504;SDS011;2265;48.794;9.520;2023-02-15T06:51:27;5.93;;;2.80;;
4504;SDS011;2265;48.794;9.520;2023-02-15T06:53:55;6.80;;;3.50;;
4504;SDS011;2265;48.794;9.520;2023-02-15T06:56:22;10.10;;;2.93;;
4504;SDS011;2265;48.794;9.520;2023-02-15T06:58:49;3.00;;;2.60;;
4504;SDS011;2265;48.794;9.520;2023-02-15T07:01:17;6.63;;;3.67;;
4504;SDS011;2265;48.794;9.520;2023-02-15T07:03:45;5.53;;;3.67;;
4504;SDS011;2265;48.794;9.520;2023-02-15T07:06:12;7.80;;;3.20;;
4504;SDS011;2265;48.794;9.520;2023-02-15T07:08:41;4.37;;;3.03;;
4504;SDS011;2265;48.794;9.520;2023-02-15T07:11:08;3.80;;;2.93;;
4504;SDS011;2265;48.794;9.520;2023-02-15T07:13:52;3.97;;;2.57;;
4504;SDS011;2265;48.794;9.520;2023-02-15T07:16:20;2.70;;;2.47;;
4504;SDS011;2265;48.794;9.520;2023-02-15T07:18:47;4.60;;;3.10;;
4504;SDS011;2265;48.794;9.520;2023-02-15T07:21:14;3.73;;;2.87;;
4504;SDS011;2265;48.794;9.520;2023-02-15T07:23:43;6.83;;;3.77;;
4504;SDS011;2265;48.794;9.520;2023-02-15T07:26:10;4.93;;;2.97;;
4504;SDS011;2265;48.794;9.520;2023-02-15T07:28:38;3.60;;;2.30;;
4504;SDS011;2265;48.794;9.520;2023-02-15T07:31:05;3.37;;;2.87;;
4504;SDS011;2265;48.794;9.520;2023-02-15T07:33:33;6.40;;;3.40;;
4504;SDS011;2265;48.794;9.520;2023-02-15T07:36:02;3.33;;;2.90;;
4504;SDS011;2265;48.794;9.520;2023-02-15T07:38:33;12.47;;;4.70;;
4504;SDS011;2265;48.794;9.520;2023-02-15T07:41:03;6.60;;;3.70;;
4504;SDS011;2265;48.794;9.520;2023-02-15T07:43:32;6.47;;;3.70;;
4504;SDS011;2265;48.794;9.520;2023-02-15T07:46:01;4.73;;;3.53;;
4504;SDS011;2265;48.794;9.520;2023-02-15T07:48:29;7.40;;;3.40;;
4504;SDS011;2265;48.794;9.520;2023-02-15T07:50:58;5.90;;;3.60;;
4504;SDS011;2265;48.794;9.520;2023-02-15T07:53:25;4.03;;;2.73;;
4504;SDS011;2265;48.794;9.520;2023-02-15T07:55:52;8.33;;;3.67;;
4504;SDS011;2265;48.794;9.520;2023-02-15T07:58:22;7.10;;;4.37;;
4504;SDS011;2265;48.794;9.520;2023-02-15T08:01:10;10.97;;;3.80;;
4504;SDS011;2265;48.794;9.520;2023-02-15T08:03:39;3.83;;;2.60;;
4504;SDS011;2265;48.794;9.520;2023-02-15T08:06:06;8.07;;;3.40;;
4504;SDS011;2265;48.794;9.520;2023-02-15T08:08:34;9.87;;;3.97;;
4504;SDS011;2265;48.794;9.520;2023-02-15T08:11:04;11.17;;;3.90;;
4504;SDS011;2265;48.794;9.520;2023-02-15T08:13:52;9.17;;;3.13;;
4504;SDS011;2265;48.794;9.520;2023-02-15T08:16:24;6.20;;;4.00;;
4504;SDS011;2265;48.794;9.520;2023-02-15T08:18:54;4.67;;;3.57;;
4504;SDS011;2265;48.794;9.520;2023-02-15T08:21:22;7.10;;;3.90;;
4504;SDS011;2265;48.794;9.520;2023-02-15T08:23:53;6.50;;;3.20;;
4504;SDS011;2265;48.794;9.520;2023-02-15T08:26:24;11.60;;;5.23;;
4504;SDS011;2265;48.794;9.520;2023-02-15T08:28:56;7.60;;;3.17;;
4504;SDS011;2265;48.794;9.520;2023-02-15T08:31:24;8.70;;;3.80;;
4504;SDS011;2265;48.794;9.520;2023-02-15T08:33:53;7.43;;;4.27;;
4504;SDS011;2265;48.794;9.520;2023-02-15T08:36:23;4.33;;;3.33;;
4504;SDS011;2265;48.794;9.520;2023-02-15T08:38:52;8.40;;;4.67;;
4504;SDS011;2265;48.794;9.520;2023-02-15T08:41:25;4.10;;;2.70;;
4504;SDS011;2265;48.794;9.520;2023-02-15T08:43:56;4.20;;;3.00;;
4504;SDS011;2265;48.794;9.520;2023-02-15T08:46:25;6.07;;;3.87;;
4504;SDS011;2265;48.794;9.520;2023-02-15T08:48:53;16.67;;;6.37;;
4504;SDS011;2265;48.794;9.520;2023-02-15T08:51:21;10.87;;;5.87;;
4504;SDS011;2265;48.794;9.520;2023-02-15T08:53:51;7.03;;;4.60;;
4504;SDS011;2265;48.794;9.520;2023-02-15T08:56:20;9.10;;;4.40;;
4504;SDS011;2265;48.794;9.520;2023-02-15T08:58:51;9.90;;;4.60;;
4504;SDS011;2265;48.794;9.520;2023-02-15T09:01:20;9.03;;;3.93;;
4504;SDS011;2265;48.794;9.520;2023-02-15T09:03:49;9.77;;;4.00;;
4504;SDS011;2265;48.794;9.520;2023-02-15T09:06:18;7.20;;;4.80;;
4504;SDS011;2265;48.794;9.520;2023-02-15T09:08:47;14.10;;;4.00;;
4504;SDS011;2265;48.794;9.520;2023-02-15T09:11:15;18.87;;;5.77;;
4504;SDS011;2265;48.794;9.520;2023-02-15T09:13:48;8.47;;;5.00;;
4504;SDS011;2265;48.794;9.520;2023-02-15T09:16:16;7.57;;;4.40;;
4504;SDS011;2265;48.794;9.520;2023-02-15T09:18:45;15.20;;;6.20;;
4504;SDS011;2265;48.794;9.520;2023-02-15T09:21:13;11.20;;;5.17;;
4504;SDS011;2265;48.794;9.520;2023-02-15T09:23:42;9.47;;;5.23;;
4504;SDS011;2265;48.794;9.520;2023-02-15T09:26:11;7.93;;;4.10;;
4504;SDS011;2265;48.794;9.520;2023-02-15T09:28:39;9.87;;;4.37;;
4504;SDS011;2265;48.794;9.520;2023-02-15T09:31:07;8.80;;;4.83;;
4504;SDS011;2265;48.794;9.520;2023-02-15T09:33:36;11.50;;;5.80;;
4504;SDS011;2265;48.794;9.520;2023-02-15T09:36:13;14.97;;;5.40;;
4504;SDS011;2265;48.794;9.520;2023-02-15T09:38:43;8.30;;;5.13;;
4504;SDS011;2265;48.794;9.520;2023-02-15T09:41:18;11.73;;;4.97;;
4504;SDS011;2265;48.794;9.520;2023-02-15T09:44:00;10.83;;;5.40;;
4504;SDS011;2265;48.794;9.520;2023-02-15T09:46:44;10.07;;;5.53;;
4504;SDS011;2265;48.794;9.520;2023-02-15T09:49:24;7.13;;;3.73;;
4504;SDS011;2265;48.794;9.520;2023-02-15T09:52:12;7.20;;;4.23;;
4504;SDS011;2265;48.794;9.520;2023-02-15T09:55:00;10.53;;;3.57;;
4504;SDS011;2265;48.794;9.520;2023-02-15T09:57:47;8.00;;;5.20;;
4504;SDS011;2265;48.794;9.520;2023-02-15T10:00:21;6.13;;;3.70;;
4504;SDS011;2265;48.794;9.520;2023-02-15T10:03:06;7.83;;;4.73;;
4504;SDS011;2265;48.794;9.520;2023-02-15T10:06:00;5.47;;;3.63;;
4504;SDS011;2265;48.794;9.520;2023-02-15T10:08:53;6.60;;;4.00;;
4504;SDS011;2265;48.794;9.520;2023-02-15T10:11:36;4.90;;;3.20;;
4504;SDS011;2265;48.794;9.520;2023-02-15T10:14:37;18.10;;;5.00;;
4504;SDS011;2265;48.794;9.520;2023-02-15T10:17:25;9.20;;;4.37;;
4504;SDS011;2265;48.794;9.520;2023-02-15T10:20:08;6.87;;;3.53;;
4504;SDS011;2265;48.794;9.520;2023-02-15T10:22:48;6.10;;;3.77;;
4504;SDS011;2265;48.794;9.520;2023-02-15T10:25:33;8.00;;;3.60;;
4504;SDS011;2265;48.794;9.520;2023-02-15T10:28:09;7.07;;;3.23;;
4504;SDS011;2265;48.794;9.520;2023-02-15T10:30:43;8.00;;;4.30;;
4504;SDS011;2265;48.794;9.520;2023-02-15T10:33:16;8.17;;;3.80;;
4504;SDS011;2265;48.794;9.520;2023-02-15T10:35:55;7.10;;;3.47;;
4504;SDS011;2265;48.794;9.520;2023-02-15T10:38:29;7.03;;;3.30;;
4504;SDS011;2265;48.794;9.520;2023-02-15T10:41:07;7.10;;;4.10;;
4504;SDS011;2265;48.794;9.520;2023-02-15T10:43:50;12.03;;;3.80;;
4504;SDS011;2265;48.794;9.520;2023-02-15T10:46:33;7.17;;;3.77;;
4504;SDS011;2265;48.794;9.520;2023-02-15T10:49:17;6.30;;;4.20;;
4504;SDS011;2265;48.794;9.520;2023-02-15T10:52:09;14.30;;;4.40;;
4504;SDS011;2265;48.794;9.520;2023-02-15T10:54:49;7.70;;;3.57;;
4504;SDS011;2265;48.794;9.520;2023-02-15T10:57:33;13.03;;;4.90;;
4504;SDS011;2265;48.794;9.520;2023-02-15T11:00:15;8.10;;;4.37;;
4504;SDS011;2265;48.794;9.520;2023-02-15T11:02:52;7.40;;;4.27;;
4504;SDS011;2265;48.794;9.520;2023-02-15T11:05:38;11.80;;;4.60;;
4504;SDS011;2265;48.794;9.520;2023-02-15T11:08:15;10.07;;;4.50;;
4504;SDS011;2265;48.794;9.520;2023-02-15T11:10:44;9.73;;;4.33;;
4504;SDS011;2265;48.794;9.520;2023-02-15T11:13:17;13.37;;;5.27;;
4504;SDS011;2265;48.794;9.520;2023-02-15T11:15:48;8.87;;;4.00;;
4504;SDS011;2265;48.794;9.520;2023-02-15T11:18:21;12.90;;;5.40;;
4504;SDS011;2265;48.794;9.520;2023-02-15T11:20:55;11.87;;;5.20;;
4504;SDS011;2265;48.794;9.520;2023-02-15T11:23:28;15.63;;;5.50;;
4504;SDS011;2265;48.794;9.520;2023-02-15T11:25:57;11.00;;;5.03;;
4504;SDS011;2265;48.794;9.520;2023-02-15T11:28:29;11.80;;;5.80;;
4504;SDS011;2265;48.794;9.520;2023-02-15T11:31:10;11.03;;;5.63;;
4504;SDS011;2265;48.794;9.520;2023-02-15T11:33:43;18.77;;;6.80;;
4504;SDS011;2265;48.794;9.520;2023-02-15T11:36:15;13.37;;;5.97;;
4504;SDS011;2265;48.794;9.520;2023-02-15T11:38:46;13.57;;;5.53;;
4504;SDS011;2265;48.794;9.520;2023-02-15T11:41:18;9.30;;;4.80;;
4504;SDS011;2265;48.794;9.520;2023-02-15T11:43:53;11.23;;;5.07;;
4504;SDS011;2265;48.794;9.520;2023-02-15T11:46:24;14.10;;;5.60;;
4504;SDS011;2265;48.794;9.520;2023-02-15T11:48:52;12.90;;;5.67;;
4504;SDS011;2265;48.794;9.520;2023-02-15T11:51:20;15.20;;;6.63;;
4504;SDS011;2265;48.794;9.520;2023-02-15T11:53:49;13.20;;;6.23;;
4504;SDS011;2265;48.794;9.520;2023-02-15T11:56:19;16.57;;;6.40;;
4504;SDS011;2265;48.794;9.520;2023-02-15T11:58:49;14.63;;;6.03;;
4504;SDS011;2265;48.794;9.520;2023-02-15T12:01:23;24.83;;;7.03;;
4504;SDS011;2265;48.794;9.520;2023-02-15T12:03:57;24.23;;;6.90;;
4504;SDS011;2265;48.794;9.520;2023-02-15T12:06:32;15.57;;;6.40;;
4504;SDS011;2265;48.794;9.520;2023-02-15T12:09:05;16.87;;;6.87;;
4504;SDS011;2265;48.794;9.520;2023-02-15T12:11:52;18.03;;;6.10;;
4504;SDS011;2265;48.794;9.520;2023-02-15T12:14:21;19.00;;;6.53;;
4504;SDS011;2265;48.794;9.520;2023-02-15T12:16:49;13.47;;;6.30;;
4504;SDS011;2265;48.794;9.520;2023-02-15T12:19:23;15.43;;;6.43;;
4504;SDS011;2265;48.794;9.520;2023-02-15T12:21:55;14.47;;;6.40;;
4504;SDS011;2265;48.794;9.520;2023-02-15T12:24:26;17.17;;;6.70;;
4504;SDS011;2265;48.794;9.520;2023-02-15T12:26:56;12.60;;;6.60;;
4504;SDS011;2265;48.794;9.520;2023-02-15T12:29:29;14.33;;;5.97;;
4504;SDS011;2265;48.794;9.520;2023-02-15T12:32:02;15.90;;;6.57;;
4504;SDS011;2265;48.794;9.520;2023-02-15T12:34:30;15.17;;;6.87;;
4504;SDS011;2265;48.794;9.520;2023-02-15T12:37:07;14.97;;;6.67;;
4504;SDS011;2265;48.794;9.520;2023-02-15T12:39:44;13.70;;;6.50;;
4504;SDS011;2265;48.794;9.520;2023-02-15T12:42:20;12.93;;;5.70;;
4504;SDS011;2265;48.794;9.520;2023-02-15T12:44:57;13.60;;;6.50;;
4504;SDS011;2265;48.794;9.520;2023-02-15T12:47:26;15.63;;;7.07;;
4504;SDS011;2265;48.794;9.520;2023-02-15T12:50:10;14.13;;;6.30;;
4504;SDS011;2265;48.794;9.520;2023-02-15T12:52:43;16.10;;;7.10;;
4504;SDS011;2265;48.794;9.520;2023-02-15T12:55:22;16.83;;;6.43;;
4504;SDS011;2265;48.794;9.520;2023-02-15T13:00:36;18.73;;;6.93;;
4504;SDS011;2265;48.794;9.520;2023-02-15T13:03:03;13.47;;;6.50;;
4504;SDS011;2265;48.794;9.520;2023-02-15T13:05:32;15.57;;;6.87;;
4504;SDS011;2265;48.794;9.520;2023-02-15T13:08:03;15.90;;;7.27;;
4504;SDS011;2265;48.794;9.520;2023-02-15T13:10:37;15.20;;;6.77;;
4504;SDS011;2265;48.794;9.520;2023-02-15T13:13:10;15.53;;;5.90;;
4504;SDS011;2265;48.794;9.520;2023-02-15T13:15:49;18.60;;;5.50;;
4504;SDS011;2265;48.794;9.520;2023-02-15T13:18:19;13.13;;;5.40;;
4504;SDS011;2265;48.794;9.520;2023-02-15T13:20:53;14.00;;;5.70;;
4504;SDS011;2265;48.794;9.520;2023-02-15T13:23:24;15.57;;;6.60;;
4504;SDS011;2265;48.794;9.520;2023-02-15T13:25:55;13.67;;;7.07;;
4504;SDS011;2265;48.794;9.520;2023-02-15T13:28:26;15.00;;;6.33;;
4504;SDS011;2265;48.794;9.520;2023-02-15T13:31:03;11.87;;;5.47;;
4504;SDS011;2265;48.794;9.520;2023-02-15T13:33:33;14.27;;;6.03;;
4504;SDS011;2265;48.794;9.520;2023-02-15T13:36:05;10.47;;;5.03;;
4504;SDS011;2265;48.794;9.520;2023-02-15T13:38:49;13.20;;;6.40;;
4504;SDS011;2265;48.794;9.520;2023-02-15T13:41:32;15.00;;;6.30;;
4504;SDS011;2265;48.794;9.520;2023-02-15T13:44:09;14.00;;;6.20;;
4504;SDS011;2265;48.794;9.520;2023-02-15T13:46:55;14.33;;;6.10;;
4504;SDS011;2265;48.794;9.520;2023-02-15T13:49:35;11.50;;;5.40;;
4504;SDS011;2265;48.794;9.520;2023-02-15T13:52:17;18.50;;;6.70;;
4504;SDS011;2265;48.794;9.520;2023-02-15T13:57:56;15.07;;;6.20;;
4504;SDS011;2265;48.794;9.520;2023-02-15T14:00:41;15.87;;;6.60;;
4504;SDS011;2265;48.794;9.520;2023-02-15T14:03:26;12.10;;;5.63;;
4504;SDS011;2265;48.794;9.520;2023-02-15T14:06:21;14.73;;;5.23;;
4504;SDS011;2265;48.794;9.520;2023-02-15T14:09:07;12.13;;;6.13;;
4504;SDS011;2265;48.794;9.520;2023-02-15T14:11:44;11.50;;;5.10;;
4504;SDS011;2265;48.794;9.520;2023-02-15T14:17:21;9.53;;;4.70;;
4504;SDS011;2265;48.794;9.520;2023-02-15T14:19:57;13.00;;;5.20;;
4504;SDS011;2265;48.794;9.520;2023-02-15T14:22:34;12.67;;;5.00;;
4504;SDS011;2265;48.794;9.520;2023-02-15T14:25:12;11.00;;;4.93;;
4504;SDS011;2265;48.794;9.520;2023-02-15T14:27:48;10.00;;;4.60;;
4504;SDS011;2265;48.794;9.520;2023-02-15T14:30:23;13.87;;;5.40;;
4504;SDS011;2265;48.794;9.520;2023-02-15T14:32:55;10.93;;;4.50;;
4504;SDS011;2265;48.794;9.520;2023-02-15T14:35:27;8.00;;;4.30;;
4504;SDS011;2265;48.794;9.520;2023-02-15T14:37:58;11.60;;;5.40;;
4504;SDS011;2265;48.794;9.520;2023-02-15T14:40:36;11.70;;;4.73;;
4504;SDS011;2265;48.794;9.520;2023-02-15T14:43:38;9.90;;;4.97;;
4504;SDS011;2265;48.794;9.520;2023-02-15T14:46:20;13.37;;;4.90;;
4504;SDS011;2265;48.794;9.520;2023-02-15T14:48:53;8.33;;;4.27;;
4504;SDS011;2265;48.794;9.520;2023-02-15T14:57:26;14.67;;;4.97;;
4504;SDS011;2265;48.794;9.520;2023-02-15T14:59:56;10.93;;;4.90;;
4504;SDS011;2265;48.794;9.520;2023-02-15T15:02:29;5.93;;;3.60;;
4504;SDS011;2265;48.794;9.520;2023-02-15T15:05:07;5.83;;;3.30;;
4504;SDS011;2265;48.794;9.520;2023-02-15T15:07:37;8.27;;;4.00;;
4504;SDS011;2265;48.794;9.520;2023-02-15T15:16:27;11.60;;;4.50;;
4504;SDS011;2265;48.794;9.520;2023-02-15T15:18:58;11.00;;;4.83;;
4504;SDS011;2265;48.794;9.520;2023-02-15T15:24:49;8.27;;;4.60;;
4504;SDS011;2265;48.794;9.520;2023-02-15T15:36:48;8.63;;;4.13;;
4504;SDS011;2265;48.794;9.520;2023-02-15T15:42:53;11.73;;;5.13;;
4504;SDS011;2265;48.794;9.520;2023-02-15T15:45:45;9.73;;;4.60;;
4504;SDS011;2265;48.794;9.520;2023-02-15T15:48:29;8.70;;;4.70;;
4504;SDS011;2265;48.794;9.520;2023-02-15T15:51:00;11.70;;;5.20;;
4504;SDS011;2265;48.794;9.520;2023-02-15T15:53:33;7.53;;;4.20;;
4504;SDS011;2265;48.794;9.520;2023-02-15T15:56:08;8.10;;;4.30;;
4504;SDS011;2265;48.794;9.520;2023-02-15T15:58:46;7.20;;;4.00;;
4504;SDS011;2265;48.794;9.520;2023-02-15T16:01:21;8.47;;;4.10;;
4504;SDS011;2265;48.794;9.520;2023-02-15T16:03:52;8.17;;;4.03;;
4504;SDS011;2265;48.794;9.520;2023-02-15T16:06:29;8.53;;;4.43;;
4504;SDS011;2265;48.794;9.520;2023-02-15T16:09:09;10.70;;;4.70;;
4504;SDS011;2265;48.794;9.520;2023-02-15T16:11:38;11.53;;;4.70;;
4504;SDS011;2265;48.794;9.520;2023-02-15T16:14:14;7.10;;;3.80;;
4504;SDS011;2265;48.794;9.520;2023-02-15T16:16:48;9.50;;;4.93;;
4504;SDS011;2265;48.794;9.520;2023-02-15T16:19:20;8.30;;;4.03;;
4504;SDS011;2265;48.794;9.520;2023-02-15T16:21:51;9.87;;;5.00;;
4504;SDS011;2265;48.794;9.520;2023-02-15T16:24:26;7.83;;;4.43;;